sensor_id;sensor_type;location;lat;lon;timestamp;temperature;humidity
36446;DHT22;22472;50.848;-1.216;2022-08-03T00:01:03;19.80;99.90
36446;DHT22;22472;50.848;-1.216;2022-08-03T00:03:32;19.80;99.90
36446;DHT22;22472;50.848;-1.216;2022-08-03T00:05:59;19.90;99.90
36446;DHT22;22472;50.848;-1.216;2022-08-03T00:08:26;19.80;99.90
36446;DHT22;22472;50.848;-1.216;2022-08-03T00:10:53;19.90;99.90
36446;DHT22;22472;50.848;-1.216;2022-08-03T00:13:20;19.80;99.90
36446;DHT22;22472;50.848;-1.216;2022-08-03T00:15:47;19.80;99.90
36446;DHT22;22472;50.848;-1.216;2022-08-03T00:18:14;19.80;99.90
36446;DHT22;22472;50.848;-1.216;2022-08-03T00:20:42;19.80;99.90
36446;DHT22;22472;50.848;-1.216;2022-08-03T00:23:09;19.80;99.90
36446;DHT22;22472;50.848;-1.216;2022-08-03T00:25:36;19.80;99.90
36446;DHT22;22472;50.848;-1.216;2022-08-03T00:28:04;19.80;99.90
36446;DHT22;22472;50.848;-1.216;2022-08-03T00:30:32;19.80;99.90
36446;DHT22;22472;50.848;-1.216;2022-08-03T00:32:59;19.80;99.90
36446;DHT22;22472;50.848;-1.216;2022-08-03T00:35:27;19.70;99.90
36446;DHT22;22472;50.848;-1.216;2022-08-03T00:37:56;19.70;99.90
36446;DHT22;22472;50.848;-1.216;2022-08-03T00:40:23;19.60;99.90
36446;DHT22;22472;50.848;-1.216;2022-08-03T00:42:51;19.60;99.90
36446;DHT22;22472;50.848;-1.216;2022-08-03T00:45:20;19.60;99.90
36446;DHT22;22472;50.848;-1.216;2022-08-03T00:47:48;19.60;99.90
36446;DHT22;22472;50.848;-1.216;2022-08-03T00:50:16;19.60;99.90
36446;DHT22;22472;50.848;-1.216;2022-08-03T00:52:44;19.70;99.90
36446;DHT22;22472;50.848;-1.216;2022-08-03T00:55:12;19.70;99.90
36446;DHT22;22472;50.848;-1.216;2022-08-03T00:57:41;19.70;99.90
36446;DHT22;22472;50.848;-1.216;2022-08-03T01:00:11;19.70;99.90
36446;DHT22;22472;50.848;-1.216;2022-08-03T01:02:39;19.70;99.90
36446;DHT22;22472;50.848;-1.216;2022-08-03T01:05:07;19.70;99.90
36446;DHT22;22472;50.848;-1.216;2022-08-03T01:07:45;19.70;99.90
36446;DHT22;22472;50.848;-1.216;2022-08-03T01:10:25;19.70;99.90
36446;DHT22;22472;50.848;-1.216;2022-08-03T01:12:58;19.60;99.90
36446;DHT22;22472;50.848;-1.216;2022-08-03T01:15:37;19.70;99.90
36446;DHT22;22472;50.848;-1.216;2022-08-03T01:18:10;19.70;99.90
36446;DHT22;22472;50.848;-1.216;2022-08-03T01:20:43;19.70;99.90
36446;DHT22;22472;50.848;-1.216;2022-08-03T01:23:34;19.70;99.90
36446;DHT22;22472;50.848;-1.216;2022-08-03T01:26:14;19.70;99.90
36446;DHT22;22472;50.848;-1.216;2022-08-03T01:29:07;19.70;99.90
36446;DHT22;22472;50.848;-1.216;2022-08-03T01:31:43;19.60;99.90
36446;DHT22;22472;50.848;-1.216;2022-08-03T01:34:14;19.60;99.90
36446;DHT22;22472;50.848;-1.216;2022-08-03T01:36:47;19.70;99.90
36446;DHT22;22472;50.848;-1.216;2022-08-03T01:39:15;19.70;99.90
36446;DHT22;22472;50.848;-1.216;2022-08-03T01:41:47;19.70;99.90
36446;DHT22;22472;50.848;-1.216;2022-08-03T01:44:15;19.70;99.90
36446;DHT22;22472;50.848;-1.216;2022-08-03T01:46:45;19.70;99.90
36446;DHT22;22472;50.848;-1.216;2022-08-03T01:49:15;19.70;99.90
36446;DHT22;22472;50.848;-1.216;2022-08-03T01:51:44;19.70;99.90
36446;DHT22;22472;50.848;-1.216;2022-08-03T01:54:13;19.70;99.90
36446;DHT22;22472;50.848;-1.216;2022-08-03T01:56:42;19.70;99.90
36446;DHT22;22472;50.848;-1.216;2022-08-03T01:59:11;19.70;99.90
36446;DHT22;22472;50.848;-1.216;2022-08-03T02:04:19;19.70;99.90
36446;DHT22;22472;50.848;-1.216;2022-08-03T02:06:47;19.70;99.90
36446;DHT22;22472;50.848;-1.216;2022-08-03T02:09:17;19.70;99.90
36446;DHT22;22472;50.848;-1.216;2022-08-03T02:11:46;19.70;99.90
36446;DHT22;22472;50.848;-1.216;2022-08-03T02:14:15;19.70;99.90
36446;DHT22;22472;50.848;-1.216;2022-08-03T02:16:43;19.70;99.90
36446;DHT22;22472;50.848;-1.216;2022-08-03T02:19:11;19.60;99.90
36446;DHT22;22472;50.848;-1.216;2022-08-03T02:21:41;19.60;99.90
36446;DHT22;22472;50.848;-1.216;2022-08-03T02:24:10;19.60;99.90
36446;DHT22;22472;50.848;-1.216;2022-08-03T02:26:39;19.60;99.90
36446;DHT22;22472;50.848;-1.216;2022-08-03T02:29:12;19.60;99.90
36446;DHT22;22472;50.848;-1.216;2022-08-03T02:31:42;19.60;99.90
36446;DHT22;22472;50.848;-1.216;2022-08-03T02:34:13;19.60;99.90
36446;DHT22;22472;50.848;-1.216;2022-08-03T02:36:45;19.60;99.90
36446;DHT22;22472;50.848;-1.216;2022-08-03T02:39:18;19.70;99.90
36446;DHT22;22472;50.848;-1.216;2022-08-03T02:41:53;19.70;99.90
36446;DHT22;22472;50.848;-1.216;2022-08-03T02:44:28;19.70;99.90
36446;DHT22;22472;50.848;-1.216;2022-08-03T02:47:01;19.70;99.90
36446;DHT22;22472;50.848;-1.216;2022-08-03T02:49:29;19.70;99.90
36446;DHT22;22472;50.848;-1.216;2022-08-03T02:51:59;19.70;99.90
36446;DHT22;22472;50.848;-1.216;2022-08-03T02:54:28;19.70;99.90
36446;DHT22;22472;50.848;-1.216;2022-08-03T02:56:56;19.70;99.90
36446;DHT22;22472;50.848;-1.216;2022-08-03T02:59:24;19.70;99.90
36446;DHT22;22472;50.848;-1.216;2022-08-03T03:01:53;19.60;99.90
36446;DHT22;22472;50.848;-1.216;2022-08-03T03:04:21;19.60;99.90
36446;DHT22;22472;50.848;-1.216;2022-08-03T03:06:49;19.60;99.90
36446;DHT22;22472;50.848;-1.216;2022-08-03T03:09:19;19.60;99.90
36446;DHT22;22472;50.848;-1.216;2022-08-03T03:11:48;19.60;99.90
36446;DHT22;22472;50.848;-1.216;2022-08-03T03:14:16;19.60;99.90
36446;DHT22;22472;50.848;-1.216;2022-08-03T03:16:44;19.60;99.90
36446;DHT22;22472;50.848;-1.216;2022-08-03T03:19:13;19.60;99.90
36446;DHT22;22472;50.848;-1.216;2022-08-03T03:21:42;19.60;99.90
36446;DHT22;22472;50.848;-1.216;2022-08-03T03:24:10;19.60;99.90
36446;DHT22;22472;50.848;-1.216;2022-08-03T03:26:39;19.60;99.90
36446;DHT22;22472;50.848;-1.216;2022-08-03T03:29:06;19.60;99.90
36446;DHT22;22472;50.848;-1.216;2022-08-03T03:31:34;19.60;99.90
36446;DHT22;22472;50.848;-1.216;2022-08-03T03:34:02;19.70;99.90
36446;DHT22;22472;50.848;-1.216;2022-08-03T03:36:29;19.70;99.90
36446;DHT22;22472;50.848;-1.216;2022-08-03T03:38:57;19.60;99.90
36446;DHT22;22472;50.848;-1.216;2022-08-03T03:41:24;19.60;99.90
36446;DHT22;22472;50.848;-1.216;2022-08-03T03:43:53;19.60;99.90
36446;DHT22;22472;50.848;-1.216;2022-08-03T03:46:20;19.60;99.90
36446;DHT22;22472;50.848;-1.216;2022-08-03T03:48:47;19.60;99.90
36446;DHT22;22472;50.848;-1.216;2022-08-03T03:51:14;19.60;99.90
36446;DHT22;22472;50.848;-1.216;2022-08-03T03:53:53;19.70;99.90
36446;DHT22;22472;50.848;-1.216;2022-08-03T03:56:21;19.70;99.90
36446;DHT22;22472;50.848;-1.216;2022-08-03T03:58:48;19.70;99.90
36446;DHT22;22472;50.848;-1.216;2022-08-03T04:01:16;19.70;99.90
36446;DHT22;22472;50.848;-1.216;2022-08-03T04:03:44;19.70;99.90
36446;DHT22;22472;50.848;-1.216;2022-08-03T04:06:11;19.70;99.90
36446;DHT22;22472;50.848;-1.216;2022-08-03T04:08:57;19.70;99.90
36446;DHT22;22472;50.848;-1.216;2022-08-03T04:11:47;19.60;99.90
36446;DHT22;22472;50.848;-1.216;2022-08-03T04:14:18;19.50;99.90
36446;DHT22;22472;50.848;-1.216;2022-08-03T04:16:50;19.50;99.90
36446;DHT22;22472;50.848;-1.216;2022-08-03T04:19:23;19.50;99.90
36446;DHT22;22472;50.848;-1.216;2022-08-03T04:21:54;19.50;99.90
36446;DHT22;22472;50.848;-1.216;2022-08-03T04:24:24;19.50;99.90
36446;DHT22;22472;50.848;-1.216;2022-08-03T04:26:53;19.50;99.90
36446;DHT22;22472;50.848;-1.216;2022-08-03T04:29:21;19.50;99.90
36446;DHT22;22472;50.848;-1.216;2022-08-03T04:31:53;19.50;99.90
36446;DHT22;22472;50.848;-1.216;2022-08-03T04:34:20;19.50;99.90
36446;DHT22;22472;50.848;-1.216;2022-08-03T04:36:48;19.40;99.90
36446;DHT22;22472;50.848;-1.216;2022-08-03T04:39:23;19.40;99.90
36446;DHT22;22472;50.848;-1.216;2022-08-03T04:41:52;19.30;99.90
36446;DHT22;22472;50.848;-1.216;2022-08-03T04:44:21;19.40;99.90
36446;DHT22;22472;50.848;-1.216;2022-08-03T04:46:51;19.40;99.90
36446;DHT22;22472;50.848;-1.216;2022-08-03T04:49:19;19.30;99.90
36446;DHT22;22472;50.848;-1.216;2022-08-03T04:51:49;19.30;99.90
36446;DHT22;22472;50.848;-1.216;2022-08-03T04:54:16;19.30;99.90
36446;DHT22;22472;50.848;-1.216;2022-08-03T04:56:43;19.40;99.90
36446;DHT22;22472;50.848;-1.216;2022-08-03T04:59:11;19.40;99.90
36446;DHT22;22472;50.848;-1.216;2022-08-03T05:01:39;19.40;99.90
36446;DHT22;22472;50.848;-1.216;2022-08-03T05:04:08;19.40;99.90
36446;DHT22;22472;50.848;-1.216;2022-08-03T05:06:35;19.40;99.90
36446;DHT22;22472;50.848;-1.216;2022-08-03T05:09:03;19.40;99.90
36446;DHT22;22472;50.848;-1.216;2022-08-03T05:11:30;19.40;99.90
36446;DHT22;22472;50.848;-1.216;2022-08-03T05:13:57;19.40;99.90
36446;DHT22;22472;50.848;-1.216;2022-08-03T05:16:24;19.40;99.90
36446;DHT22;22472;50.848;-1.216;2022-08-03T05:18:51;19.50;99.90
36446;DHT22;22472;50.848;-1.216;2022-08-03T05:21:20;19.50;99.90
36446;DHT22;22472;50.848;-1.216;2022-08-03T05:23:47;19.50;99.90
36446;DHT22;22472;50.848;-1.216;2022-08-03T05:26:14;19.50;99.90
36446;DHT22;22472;50.848;-1.216;2022-08-03T05:28:41;19.50;99.90
36446;DHT22;22472;50.848;-1.216;2022-08-03T05:31:08;19.50;99.90
36446;DHT22;22472;50.848;-1.216;2022-08-03T05:33:36;19.50;99.90
36446;DHT22;22472;50.848;-1.216;2022-08-03T05:36:04;19.50;99.90
36446;DHT22;22472;50.848;-1.216;2022-08-03T05:38:33;19.50;99.90
36446;DHT22;22472;50.848;-1.216;2022-08-03T05:41:01;19.60;99.90
36446;DHT22;22472;50.848;-1.216;2022-08-03T05:43:28;19.60;99.90
36446;DHT22;22472;50.848;-1.216;2022-08-03T05:45:56;19.50;99.90
36446;DHT22;22472;50.848;-1.216;2022-08-03T05:48:24;19.50;99.90
36446;DHT22;22472;50.848;-1.216;2022-08-03T05:50:51;19.50;99.90
36446;DHT22;22472;50.848;-1.216;2022-08-03T05:53:18;19.50;99.90
36446;DHT22;22472;50.848;-1.216;2022-08-03T05:55:47;19.50;99.90
36446;DHT22;22472;50.848;-1.216;2022-08-03T05:58:14;19.50;99.90
36446;DHT22;22472;50.848;-1.216;2022-08-03T06:00:41;19.60;99.90
36446;DHT22;22472;50.848;-1.216;2022-08-03T06:03:08;19.50;99.90
36446;DHT22;22472;50.848;-1.216;2022-08-03T06:05:35;19.60;99.90
36446;DHT22;22472;50.848;-1.216;2022-08-03T06:08:03;19.60;99.90
36446;DHT22;22472;50.848;-1.216;2022-08-03T06:10:31;19.60;99.90
36446;DHT22;22472;50.848;-1.216;2022-08-03T06:12:59;19.60;99.90
36446;DHT22;22472;50.848;-1.216;2022-08-03T06:15:26;19.70;99.90
36446;DHT22;22472;50.848;-1.216;2022-08-03T06:17:53;19.80;99.90
36446;DHT22;22472;50.848;-1.216;2022-08-03T06:20:21;19.70;99.90
36446;DHT22;22472;50.848;-1.216;2022-08-03T06:22:48;19.70;99.90
36446;DHT22;22472;50.848;-1.216;2022-08-03T06:25:16;19.70;99.90
36446;DHT22;22472;50.848;-1.216;2022-08-03T06:27:44;19.70;99.90
36446;DHT22;22472;50.848;-1.216;2022-08-03T06:30:13;19.70;99.90
36446;DHT22;22472;50.848;-1.216;2022-08-03T06:32:41;19.80;99.90
36446;DHT22;22472;50.848;-1.216;2022-08-03T06:35:09;19.70;99.90
36446;DHT22;22472;50.848;-1.216;2022-08-03T06:37:42;19.80;99.90
36446;DHT22;22472;50.848;-1.216;2022-08-03T06:40:11;19.80;99.90
36446;DHT22;22472;50.848;-1.216;2022-08-03T06:42:39;19.90;99.90
36446;DHT22;22472;50.848;-1.216;2022-08-03T06:45:07;19.90;99.90
36446;DHT22;22472;50.848;-1.216;2022-08-03T06:47:36;19.90;99.90
36446;DHT22;22472;50.848;-1.216;2022-08-03T06:50:05;19.90;99.90
36446;DHT22;22472;50.848;-1.216;2022-08-03T06:52:33;19.90;99.90
36446;DHT22;22472;50.848;-1.216;2022-08-03T06:55:01;19.90;99.90
36446;DHT22;22472;50.848;-1.216;2022-08-03T06:57:28;19.90;99.90
36446;DHT22;22472;50.848;-1.216;2022-08-03T06:59:55;20.00;99.90
36446;DHT22;22472;50.848;-1.216;2022-08-03T07:02:26;20.00;99.90
36446;DHT22;22472;50.848;-1.216;2022-08-03T07:04:55;19.90;99.90
36446;DHT22;22472;50.848;-1.216;2022-08-03T07:07:23;19.90;99.90
36446;DHT22;22472;50.848;-1.216;2022-08-03T07:09:50;19.90;99.90
36446;DHT22;22472;50.848;-1.216;2022-08-03T07:12:17;20.00;99.90
36446;DHT22;22472;50.848;-1.216;2022-08-03T07:14:44;20.00;99.90
36446;DHT22;22472;50.848;-1.216;2022-08-03T07:17:11;20.10;99.90
36446;DHT22;22472;50.848;-1.216;2022-08-03T07:19:38;20.10;99.90
36446;DHT22;22472;50.848;-1.216;2022-08-03T07:22:06;20.10;99.90
36446;DHT22;22472;50.848;-1.216;2022-08-03T07:24:34;20.10;99.90
36446;DHT22;22472;50.848;-1.216;2022-08-03T07:27:01;20.30;99.90
36446;DHT22;22472;50.848;-1.216;2022-08-03T07:29:28;20.30;99.90
36446;DHT22;22472;50.848;-1.216;2022-08-03T07:31:55;20.30;99.90
36446;DHT22;22472;50.848;-1.216;2022-08-03T07:34:22;20.50;99.90
36446;DHT22;22472;50.848;-1.216;2022-08-03T07:36:49;20.60;99.90
36446;DHT22;22472;50.848;-1.216;2022-08-03T07:39:17;20.50;99.90
36446;DHT22;22472;50.848;-1.216;2022-08-03T07:41:44;20.50;99.90
36446;DHT22;22472;50.848;-1.216;2022-08-03T07:44:12;20.60;99.90
36446;DHT22;22472;50.848;-1.216;2022-08-03T07:46:39;20.70;99.90
36446;DHT22;22472;50.848;-1.216;2022-08-03T07:49:06;20.70;99.90
36446;DHT22;22472;50.848;-1.216;2022-08-03T07:51:33;20.90;99.90
36446;DHT22;22472;50.848;-1.216;2022-08-03T07:54:01;21.00;99.90
36446;DHT22;22472;50.848;-1.216;2022-08-03T07:56:29;21.10;99.90
36446;DHT22;22472;50.848;-1.216;2022-08-03T07:58:57;21.10;99.90
36446;DHT22;22472;50.848;-1.216;2022-08-03T08:01:24;20.80;99.90
36446;DHT22;22472;50.848;-1.216;2022-08-03T08:03:51;20.80;99.90
36446;DHT22;22472;50.848;-1.216;2022-08-03T08:06:18;20.90;99.90
36446;DHT22;22472;50.848;-1.216;2022-08-03T08:08:45;21.00;99.90
36446;DHT22;22472;50.848;-1.216;2022-08-03T08:11:12;21.10;99.90
36446;DHT22;22472;50.848;-1.216;2022-08-03T08:13:41;21.00;99.90
36446;DHT22;22472;50.848;-1.216;2022-08-03T08:16:08;20.80;99.90
36446;DHT22;22472;50.848;-1.216;2022-08-03T08:18:35;20.70;99.90
36446;DHT22;22472;50.848;-1.216;2022-08-03T08:21:02;20.80;99.90
36446;DHT22;22472;50.848;-1.216;2022-08-03T08:23:29;20.80;99.90
36446;DHT22;22472;50.848;-1.216;2022-08-03T08:25:56;20.90;99.90
36446;DHT22;22472;50.848;-1.216;2022-08-03T08:28:23;21.00;99.90
36446;DHT22;22472;50.848;-1.216;2022-08-03T08:30:52;21.10;99.90
36446;DHT22;22472;50.848;-1.216;2022-08-03T08:33:19;21.20;99.90
36446;DHT22;22472;50.848;-1.216;2022-08-03T08:35:46;21.30;99.90
36446;DHT22;22472;50.848;-1.216;2022-08-03T08:38:13;21.20;99.90
36446;DHT22;22472;50.848;-1.216;2022-08-03T08:40:40;21.20;99.90
36446;DHT22;22472;50.848;-1.216;2022-08-03T08:43:07;21.20;99.90
36446;DHT22;22472;50.848;-1.216;2022-08-03T08:45:34;21.10;99.90
36446;DHT22;22472;50.848;-1.216;2022-08-03T08:48:04;21.10;99.90
36446;DHT22;22472;50.848;-1.216;2022-08-03T08:50:32;21.10;99.90
36446;DHT22;22472;50.848;-1.216;2022-08-03T08:53:01;21.10;99.90
36446;DHT22;22472;50.848;-1.216;2022-08-03T08:55:29;21.20;99.90
36446;DHT22;22472;50.848;-1.216;2022-08-03T08:58:00;21.30;99.90
36446;DHT22;22472;50.848;-1.216;2022-08-03T09:00:27;21.20;99.90
36446;DHT22;22472;50.848;-1.216;2022-08-03T09:02:55;21.20;99.90
36446;DHT22;22472;50.848;-1.216;2022-08-03T09:05:24;21.10;99.90
36446;DHT22;22472;50.848;-1.216;2022-08-03T09:07:51;21.30;99.90
36446;DHT22;22472;50.848;-1.216;2022-08-03T09:10:18;21.40;99.90
36446;DHT22;22472;50.848;-1.216;2022-08-03T09:12:48;21.50;99.90
36446;DHT22;22472;50.848;-1.216;2022-08-03T09:15:17;21.40;99.90
36446;DHT22;22472;50.848;-1.216;2022-08-03T09:17:45;21.40;99.90
36446;DHT22;22472;50.848;-1.216;2022-08-03T09:20:12;21.50;99.90
36446;DHT22;22472;50.848;-1.216;2022-08-03T09:22:54;21.60;99.90
36446;DHT22;22472;50.848;-1.216;2022-08-03T09:25:29;21.50;99.90
36446;DHT22;22472;50.848;-1.216;2022-08-03T09:28:07;21.60;99.90
36446;DHT22;22472;50.848;-1.216;2022-08-03T09:30:35;21.70;99.90
36446;DHT22;22472;50.848;-1.216;2022-08-03T09:33:05;21.80;99.90
36446;DHT22;22472;50.848;-1.216;2022-08-03T09:35:33;21.80;99.90
36446;DHT22;22472;50.848;-1.216;2022-08-03T09:38:14;21.90;99.90
36446;DHT22;22472;50.848;-1.216;2022-08-03T09:40:43;21.80;99.90
36446;DHT22;22472;50.848;-1.216;2022-08-03T09:43:11;21.80;99.90
36446;DHT22;22472;50.848;-1.216;2022-08-03T09:45:39;21.70;99.90
36446;DHT22;22472;50.848;-1.216;2022-08-03T09:48:20;21.90;99.90
36446;DHT22;22472;50.848;-1.216;2022-08-03T09:50:49;22.00;99.90
36446;DHT22;22472;50.848;-1.216;2022-08-03T09:53:18;21.90;99.90
36446;DHT22;22472;50.848;-1.216;2022-08-03T09:55:56;21.90;99.90
36446;DHT22;22472;50.848;-1.216;2022-08-03T09:58:24;21.90;99.90
36446;DHT22;22472;50.848;-1.216;2022-08-03T10:00:56;22.00;99.90
36446;DHT22;22472;50.848;-1.216;2022-08-03T10:03:25;22.30;99.90
36446;DHT22;22472;50.848;-1.216;2022-08-03T10:05:53;22.30;99.90
36446;DHT22;22472;50.848;-1.216;2022-08-03T10:08:22;22.30;99.90
36446;DHT22;22472;50.848;-1.216;2022-08-03T10:10:50;22.40;99.90
36446;DHT22;22472;50.848;-1.216;2022-08-03T10:13:21;22.40;99.90
36446;DHT22;22472;50.848;-1.216;2022-08-03T10:15:48;22.70;99.90
36446;DHT22;22472;50.848;-1.216;2022-08-03T10:18:16;22.70;99.90
36446;DHT22;22472;50.848;-1.216;2022-08-03T10:20:45;22.80;99.90
36446;DHT22;22472;50.848;-1.216;2022-08-03T10:23:16;23.00;99.90
36446;DHT22;22472;50.848;-1.216;2022-08-03T10:25:48;22.90;99.90
36446;DHT22;22472;50.848;-1.216;2022-08-03T10:28:18;23.10;99.90
36446;DHT22;22472;50.848;-1.216;2022-08-03T10:30:48;23.20;99.90
36446;DHT22;22472;50.848;-1.216;2022-08-03T10:33:18;23.50;99.90
36446;DHT22;22472;50.848;-1.216;2022-08-03T10:35:46;23.60;99.90
36446;DHT22;22472;50.848;-1.216;2022-08-03T10:38:18;23.60;99.90
36446;DHT22;22472;50.848;-1.216;2022-08-03T10:40:47;23.50;99.90
36446;DHT22;22472;50.848;-1.216;2022-08-03T10:43:20;23.20;99.90
36446;DHT22;22472;50.848;-1.216;2022-08-03T10:45:48;23.20;99.90
36446;DHT22;22472;50.848;-1.216;2022-08-03T10:48:16;23.10;99.90
36446;DHT22;22472;50.848;-1.216;2022-08-03T10:50:44;23.10;99.90
36446;DHT22;22472;50.848;-1.216;2022-08-03T10:53:12;23.10;99.90
36446;DHT22;22472;50.848;-1.216;2022-08-03T10:55:40;23.20;99.90
36446;DHT22;22472;50.848;-1.216;2022-08-03T10:58:49;23.40;99.90
36446;DHT22;22472;50.848;-1.216;2022-08-03T11:01:17;23.60;99.90
36446;DHT22;22472;50.848;-1.216;2022-08-03T11:04:18;23.70;99.90
36446;DHT22;22472;50.848;-1.216;2022-08-03T11:06:47;23.70;99.90
36446;DHT22;22472;50.848;-1.216;2022-08-03T11:09:16;24.00;99.90
36446;DHT22;22472;50.848;-1.216;2022-08-03T11:11:43;24.10;99.90
36446;DHT22;22472;50.848;-1.216;2022-08-03T11:14:14;23.80;99.90
36446;DHT22;22472;50.848;-1.216;2022-08-03T11:16:43;23.80;99.90
36446;DHT22;22472;50.848;-1.216;2022-08-03T11:19:14;23.60;99.90
36446;DHT22;22472;50.848;-1.216;2022-08-03T11:21:57;23.60;99.90
36446;DHT22;22472;50.848;-1.216;2022-08-03T11:24:58;23.70;99.90
36446;DHT22;22472;50.848;-1.216;2022-08-03T11:27:29;23.70;99.90
36446;DHT22;22472;50.848;-1.216;2022-08-03T11:30:04;23.70;99.90
36446;DHT22;22472;50.848;-1.216;2022-08-03T11:32:51;23.80;99.90
36446;DHT22;22472;50.848;-1.216;2022-08-03T11:35:21;23.90;99.90
36446;DHT22;22472;50.848;-1.216;2022-08-03T11:38:07;23.70;99.90
36446;DHT22;22472;50.848;-1.216;2022-08-03T11:40:40;23.90;99.90
36446;DHT22;22472;50.848;-1.216;2022-08-03T11:43:08;24.00;99.90
36446;DHT22;22472;50.848;-1.216;2022-08-03T11:45:37;24.30;99.90
36446;DHT22;22472;50.848;-1.216;2022-08-03T11:48:15;24.40;99.90
36446;DHT22;22472;50.848;-1.216;2022-08-03T11:50:42;24.00;99.90
36446;DHT22;22472;50.848;-1.216;2022-08-03T11:53:15;23.90;99.90
36446;DHT22;22472;50.848;-1.216;2022-08-03T11:55:45;24.10;99.90
36446;DHT22;22472;50.848;-1.216;2022-08-03T11:58:17;24.00;99.90
36446;DHT22;22472;50.848;-1.216;2022-08-03T12:00:46;23.90;99.90
36446;DHT22;22472;50.848;-1.216;2022-08-03T12:03:15;23.80;99.90
36446;DHT22;22472;50.848;-1.216;2022-08-03T12:05:45;24.00;99.90
36446;DHT22;22472;50.848;-1.216;2022-08-03T12:08:14;24.00;99.90
36446;DHT22;22472;50.848;-1.216;2022-08-03T12:10:47;24.20;99.90
36446;DHT22;22472;50.848;-1.216;2022-08-03T12:13:14;24.50;99.90
36446;DHT22;22472;50.848;-1.216;2022-08-03T12:15:42;24.60;99.90
36446;DHT22;22472;50.848;-1.216;2022-08-03T12:18:14;24.80;99.90
36446;DHT22;22472;50.848;-1.216;2022-08-03T12:20:43;24.80;99.90
36446;DHT22;22472;50.848;-1.216;2022-08-03T12:23:10;24.90;99.90
36446;DHT22;22472;50.848;-1.216;2022-08-03T12:25:39;25.00;99.90
36446;DHT22;22472;50.848;-1.216;2022-08-03T12:28:12;25.50;99.90
36446;DHT22;22472;50.848;-1.216;2022-08-03T12:30:44;25.30;99.90
36446;DHT22;22472;50.848;-1.216;2022-08-03T12:33:18;25.60;99.90
36446;DHT22;22472;50.848;-1.216;2022-08-03T12:35:47;25.80;99.90
36446;DHT22;22472;50.848;-1.216;2022-08-03T12:38:20;26.60;99.90
36446;DHT22;22472;50.848;-1.216;2022-08-03T12:41:02;26.10;99.90
36446;DHT22;22472;50.848;-1.216;2022-08-03T12:43:30;26.10;99.90
36446;DHT22;22472;50.848;-1.216;2022-08-03T12:46:08;26.10;99.90
36446;DHT22;22472;50.848;-1.216;2022-08-03T12:48:57;26.50;99.90
36446;DHT22;22472;50.848;-1.216;2022-08-03T12:51:24;27.10;99.90
36446;DHT22;22472;50.848;-1.216;2022-08-03T12:53:52;27.50;99.90
36446;DHT22;22472;50.848;-1.216;2022-08-03T12:56:19;27.40;99.90
36446;DHT22;22472;50.848;-1.216;2022-08-03T12:58:46;27.40;99.90
36446;DHT22;22472;50.848;-1.216;2022-08-03T13:01:15;27.50;99.90
36446;DHT22;22472;50.848;-1.216;2022-08-03T13:03:45;27.50;99.90
36446;DHT22;22472;50.848;-1.216;2022-08-03T13:06:13;27.40;99.90
36446;DHT22;22472;50.848;-1.216;2022-08-03T13:08:40;27.00;99.90
36446;DHT22;22472;50.848;-1.216;2022-08-03T13:11:21;27.30;99.90
36446;DHT22;22472;50.848;-1.216;2022-08-03T13:13:49;27.10;99.90
36446;DHT22;22472;50.848;-1.216;2022-08-03T13:16:16;27.00;99.90
36446;DHT22;22472;50.848;-1.216;2022-08-03T13:18:45;26.80;99.90
36446;DHT22;22472;50.848;-1.216;2022-08-03T13:21:13;26.80;99.90
36446;DHT22;22472;50.848;-1.216;2022-08-03T13:23:41;27.30;99.90
36446;DHT22;22472;50.848;-1.216;2022-08-03T13:26:09;27.70;99.90
36446;DHT22;22472;50.848;-1.216;2022-08-03T13:28:36;27.90;99.90
36446;DHT22;22472;50.848;-1.216;2022-08-03T13:31:03;27.40;99.90
36446;DHT22;22472;50.848;-1.216;2022-08-03T13:33:31;27.70;99.90
36446;DHT22;22472;50.848;-1.216;2022-08-03T13:36:00;28.10;99.90
36446;DHT22;22472;50.848;-1.216;2022-08-03T13:38:27;28.10;99.90
36446;DHT22;22472;50.848;-1.216;2022-08-03T13:40:54;27.70;99.90
36446;DHT22;22472;50.848;-1.216;2022-08-03T13:43:21;27.60;99.90
36446;DHT22;22472;50.848;-1.216;2022-08-03T13:45:48;27.20;99.90
36446;DHT22;22472;50.848;-1.216;2022-08-03T13:48:15;27.20;99.90
36446;DHT22;22472;50.848;-1.216;2022-08-03T13:50:42;27.40;99.90
36446;DHT22;22472;50.848;-1.216;2022-08-03T13:53:11;27.80;99.90
36446;DHT22;22472;50.848;-1.216;2022-08-03T13:55:38;28.00;99.90
36446;DHT22;22472;50.848;-1.216;2022-08-03T13:58:05;27.70;99.90
36446;DHT22;22472;50.848;-1.216;2022-08-03T14:00:36;27.80;99.90
36446;DHT22;22472;50.848;-1.216;2022-08-03T14:03:04;28.20;99.90
36446;DHT22;22472;50.848;-1.216;2022-08-03T14:05:32;28.10;99.90
36446;DHT22;22472;50.848;-1.216;2022-08-03T14:07:59;28.30;99.90
36446;DHT22;22472;50.848;-1.216;2022-08-03T14:10:28;28.40;99.90
36446;DHT22;22472;50.848;-1.216;2022-08-03T14:12:55;28.80;99.90
36446;DHT22;22472;50.848;-1.216;2022-08-03T14:15:25;28.80;99.90
36446;DHT22;22472;50.848;-1.216;2022-08-03T14:17:53;28.70;99.90
36446;DHT22;22472;50.848;-1.216;2022-08-03T14:20:20;28.00;99.90
36446;DHT22;22472;50.848;-1.216;2022-08-03T14:22:48;27.90;99.90
36446;DHT22;22472;50.848;-1.216;2022-08-03T14:25:15;27.90;99.90
36446;DHT22;22472;50.848;-1.216;2022-08-03T14:27:43;28.30;99.90
36446;DHT22;22472;50.848;-1.216;2022-08-03T14:30:11;28.20;99.90
36446;DHT22;22472;50.848;-1.216;2022-08-03T14:32:38;28.00;99.90
36446;DHT22;22472;50.848;-1.216;2022-08-03T14:35:06;27.80;99.90
36446;DHT22;22472;50.848;-1.216;2022-08-03T14:37:33;27.70;99.90
36446;DHT22;22472;50.848;-1.216;2022-08-03T14:40:00;27.90;99.90
36446;DHT22;22472;50.848;-1.216;2022-08-03T14:42:27;27.80;99.90
36446;DHT22;22472;50.848;-1.216;2022-08-03T14:44:56;27.20;99.90
36446;DHT22;22472;50.848;-1.216;2022-08-03T14:47:23;27.30;99.90
36446;DHT22;22472;50.848;-1.216;2022-08-03T14:49:50;28.10;99.90
36446;DHT22;22472;50.848;-1.216;2022-08-03T14:52:17;28.80;99.90
36446;DHT22;22472;50.848;-1.216;2022-08-03T14:54:44;28.60;99.90
36446;DHT22;22472;50.848;-1.216;2022-08-03T14:57:11;28.20;99.90
36446;DHT22;22472;50.848;-1.216;2022-08-03T14:59:38;28.00;99.90
36446;DHT22;22472;50.848;-1.216;2022-08-03T15:02:07;27.60;99.90
36446;DHT22;22472;50.848;-1.216;2022-08-03T15:04:34;27.30;99.90
36446;DHT22;22472;50.848;-1.216;2022-08-03T15:07:01;26.90;99.90
36446;DHT22;22472;50.848;-1.216;2022-08-03T15:09:28;26.60;99.90
36446;DHT22;22472;50.848;-1.216;2022-08-03T15:11:55;26.40;99.90
36446;DHT22;22472;50.848;-1.216;2022-08-03T15:14:22;26.60;99.90
36446;DHT22;22472;50.848;-1.216;2022-08-03T15:16:50;26.60;99.90
36446;DHT22;22472;50.848;-1.216;2022-08-03T15:19:18;26.70;99.90
36446;DHT22;22472;50.848;-1.216;2022-08-03T15:21:45;27.00;99.90
36446;DHT22;22472;50.848;-1.216;2022-08-03T15:24:12;27.30;99.90
36446;DHT22;22472;50.848;-1.216;2022-08-03T15:26:40;27.70;99.90
36446;DHT22;22472;50.848;-1.216;2022-08-03T15:29:07;27.50;99.90
36446;DHT22;22472;50.848;-1.216;2022-08-03T15:31:34;27.30;99.90